Time;durP1;ratioP1;P1;durP2;ratioP2;P2;SDS_P1;SDS_P2;PMS_P1;PMS_P2;Temp;Humidity;BMP_temperature;BMP_pressure;BME280_temperature;BME280_humidity;BME280_pressure;Samples;Min_cycle;Max_cycle;Signal;HPM_P1;HPM_P2
2022/03/09 00:00:24;;;;;;;7.43;3.77;;;2.60;79.00;;;;;;4975088;28;20470;-70
2022/03/09 00:02:49;;;;;;;7.03;3.47;;;2.60;78.20;;;;;;5019484;28;20048;-70
2022/03/09 00:05:15;;;;;;;6.30;2.70;;;2.60;78.40;;;;;;4963189;28;20848;-70
2022/03/09 00:07:41;;;;;;;8.80;3.87;;;2.60;78.70;;;;;;4969599;28;20453;-70
2022/03/09 00:10:07;;;;;;;6.80;3.07;;;2.60;78.90;;;;;;4969324;28;20045;-71
2022/03/09 00:12:33;;;;;;;6.40;3.38;;;2.50;78.60;;;;;;4995582;28;20048;-70
2022/03/09 00:14:59;;;;;;;5.85;3.00;;;2.50;78.90;;;;;;5000401;28;20046;-70
2022/03/09 00:17:24;;;;;;;6.33;3.20;;;2.50;78.90;;;;;;4998038;28;20191;-71
2022/03/09 00:19:50;;;;;;;6.57;3.57;;;2.50;79.10;;;;;;5000485;28;20057;-71
2022/03/09 00:22:17;;;;;;;7.23;3.07;;;2.40;79.30;;;;;;5016206;28;20061;-68
2022/03/09 00:24:43;;;;;;;7.72;3.30;;;2.40;79.50;;;;;;5016063;28;20401;-68
2022/03/09 00:27:12;;;;;;;9.10;3.70;;;2.40;79.50;;;;;;5020104;28;20560;-68
2022/03/09 00:29:38;;;;;;;8.95;3.85;;;2.30;80.10;;;;;;4991170;28;20449;-69
2022/03/09 00:32:06;;;;;;;6.22;3.70;;;2.40;80.10;;;;;;5014603;28;20395;-69
2022/03/09 00:34:33;;;;;;;6.68;2.90;;;2.30;80.30;;;;;;5019063;28;20048;-69
2022/03/09 00:37:00;;;;;;;8.70;4.05;;;2.30;80.50;;;;;;5008325;28;20145;-70
2022/03/09 00:39:26;;;;;;;9.38;4.75;;;2.30;80.60;;;;;;4999871;28;20092;-68
2022/03/09 00:41:53;;;;;;;7.43;4.10;;;2.20;81.00;;;;;;4988622;28;20057;-69
2022/03/09 00:44:19;;;;;;;9.82;3.88;;;2.20;81.50;;;;;;4997596;28;20445;-69
2022/03/09 00:46:48;;;;;;;7.10;3.20;;;2.20;82.10;;;;;;5017732;28;20037;-68
2022/03/09 00:49:17;;;;;;;6.43;3.72;;;2.20;82.00;;;;;;4985323;28;20034;-68
2022/03/09 00:51:44;;;;;;;8.45;3.65;;;2.10;81.90;;;;;;4951195;28;20363;-68
2022/03/09 00:54:20;;;;;;;8.82;4.35;;;2.10;81.90;;;;;;5011831;28;20044;-68
2022/03/09 00:56:46;;;;;;;8.32;4.10;;;2.10;82.20;;;;;;4994044;28;20179;-68
2022/03/09 00:59:12;;;;;;;8.80;4.55;;;2.10;82.20;;;;;;4995598;28;20050;-68
2022/03/09 01:01:38;;;;;;;8.13;4.25;;;2.10;82.40;;;;;;4990123;28;20124;-69
2022/03/09 01:04:04;;;;;;;9.77;4.00;;;2.10;82.70;;;;;;5014121;28;20045;-68
2022/03/09 01:06:30;;;;;;;7.77;4.53;;;2.10;83.00;;;;;;5021790;28;20045;-68
2022/03/09 01:08:57;;;;;;;7.70;3.93;;;2.00;83.20;;;;;;5010619;28;20030;-68
2022/03/09 01:11:23;;;;;;;9.20;5.13;;;2.00;83.70;;;;;;5001903;28;20033;-68
2022/03/09 01:13:49;;;;;;;8.30;4.07;;;2.00;83.50;;;;;;5001659;28;20076;-68
2022/03/09 01:16:14;;;;;;;6.90;4.07;;;1.90;83.50;;;;;;5030086;28;20064;-69
2022/03/09 01:18:41;;;;;;;9.80;4.73;;;1.90;83.90;;;;;;5000024;28;20045;-69
2022/03/09 01:21:06;;;;;;;10.32;5.10;;;2.00;83.90;;;;;;5032649;28;20049;-69
2022/03/09 01:23:32;;;;;;;11.43;4.10;;;1.90;83.90;;;;;;5025333;28;20030;-69
2022/03/09 01:25:58;;;;;;;8.13;4.20;;;2.00;84.00;;;;;;5028078;28;20741;-69
2022/03/09 01:28:24;;;;;;;7.35;4.03;;;1.90;85.00;;;;;;4993788;28;20046;-69
2022/03/09 01:30:49;;;;;;;8.13;4.00;;;1.90;84.30;;;;;;5022755;28;20469;-69
2022/03/09 01:33:15;;;;;;;11.73;4.93;;;1.90;84.10;;;;;;5013891;28;20053;-70
2022/03/09 01:35:41;;;;;;;11.23;4.87;;;1.90;84.20;;;;;;5017453;28;20458;-69
2022/03/09 01:38:06;;;;;;;8.00;4.03;;;1.80;84.50;;;;;;4991146;28;20038;-69
2022/03/09 01:40:32;;;;;;;6.93;4.03;;;1.80;84.40;;;;;;5010480;28;20474;-69
2022/03/09 01:42:57;;;;;;;8.60;4.43;;;1.90;84.50;;;;;;5029522;28;20245;-70
2022/03/09 01:45:24;;;;;;;9.43;4.47;;;1.80;84.70;;;;;;5023106;28;20044;-70
2022/03/09 01:47:50;;;;;;;11.40;5.28;;;1.80;84.80;;;;;;5013570;28;20077;-70
2022/03/09 01:50:16;;;;;;;9.90;4.70;;;1.70;84.90;;;;;;5001250;28;20139;-70
2022/03/09 01:52:43;;;;;;;12.77;5.53;;;1.70;85.50;;;;;;5031006;28;20038;-70
2022/03/09 01:55:10;;;;;;;9.75;4.15;;;1.70;85.70;;;;;;5011029;28;20056;-70
2022/03/09 01:57:36;;;;;;;7.60;3.78;;;1.70;85.90;;;;;;5008997;28;20095;-70
2022/03/09 02:00:04;;;;;;;9.63;4.72;;;1.60;86.00;;;;;;5008603;28;20198;-70
2022/03/09 02:02:29;;;;;;;13.65;4.65;;;1.60;86.20;;;;;;5014173;28;20136;-70
2022/03/09 02:04:55;;;;;;;8.10;4.53;;;1.60;86.40;;;;;;5010836;28;20117;-69
2022/03/09 02:09:41;;;;;;;12.53;4.77;;;1.60;86.80;;;;;;5027735;28;20047;-70
2022/03/09 02:10:10;;;;;;;10.57;4.88;;;1.50;86.70;;;;;;5013504;28;20045;-69
2022/03/09 02:12:36;;;;;;;8.85;5.43;;;1.50;86.90;;;;;;5010465;28;20042;-69
2022/03/09 02:15:03;;;;;;;12.82;4.70;;;1.50;87.30;;;;;;5009409;28;20128;-69
2022/03/09 02:17:29;;;;;;;8.75;4.82;;;1.50;87.80;;;;;;5029899;28;20037;-70
2022/03/09 02:19:56;;;;;;;11.23;5.43;;;1.50;88.10;;;;;;5019159;28;20042;-70
2022/03/09 02:22:37;;;;;;;10.30;4.65;;;1.50;88.30;;;;;;5006927;28;20046;-70
2022/03/09 02:25:14;;;;;;;8.30;4.55;;;1.40;88.90;;;;;;4994793;28;20103;-70
2022/03/09 02:27:44;;;;;;;10.90;4.78;;;1.40;88.60;;;;;;5012181;28;20042;-70
2022/03/09 02:30:16;;;;;;;9.25;4.57;;;1.40;89.30;;;;;;5026864;28;20392;-69
2022/03/09 02:32:49;;;;;;;11.30;4.70;;;1.40;89.70;;;;;;5003957;28;20037;-70
2022/03/09 02:35:17;;;;;;;9.52;4.53;;;1.40;90.00;;;;;;5026875;28;20132;-70
2022/03/09 02:37:43;;;;;;;10.27;4.82;;;1.30;90.00;;;;;;5016088;28;20045;-69
2022/03/09 02:40:11;;;;;;;8.67;4.17;;;1.30;90.00;;;;;;5011282;28;20091;-69
2022/03/09 02:42:37;;;;;;;11.05;4.78;;;1.30;90.10;;;;;;4992878;28;20494;-69
2022/03/09 02:45:03;;;;;;;8.80;4.57;;;1.30;90.30;;;;;;5009998;28;20052;-69
2022/03/09 02:47:29;;;;;;;;;;;1.20;90.40;;;;;;5010356;28;20037;-69
2022/03/09 02:49:55;;;;;;;10.13;4.95;;;1.20;90.90;;;;;;5009213;28;20016;-69
2022/03/09 02:52:20;;;;;;;8.07;4.93;;;1.20;90.30;;;;;;5010373;28;20046;-70
2022/03/09 02:54:46;;;;;;;9.50;3.80;;;1.20;90.30;;;;;;5040623;28;20130;-69
2022/03/09 02:57:12;;;;;;;7.77;4.40;;;1.20;90.30;;;;;;5009872;28;20124;-69
2022/03/09 02:59:37;;;;;;;10.23;4.70;;;1.20;90.40;;;;;;5008815;28;20120;-69
2022/03/09 03:02:04;;;;;;;7.20;3.73;;;1.20;90.40;;;;;;5026280;28;20056;-69
2022/03/09 03:04:31;;;;;;;12.35;4.75;;;1.20;90.40;;;;;;5009500;28;20129;-69
2022/03/09 03:06:57;;;;;;;12.02;4.93;;;1.10;90.40;;;;;;5008267;28;20045;-70
2022/03/09 03:09:23;;;;;;;9.33;4.13;;;1.10;90.50;;;;;;5009770;28;20046;-69
2022/03/09 03:11:48;;;;;;;8.60;4.97;;;1.20;90.70;;;;;;5013963;28;20409;-68
2022/03/09 03:14:14;;;;;;;9.20;4.43;;;1.10;91.00;;;;;;5014019;28;20088;-69
2022/03/09 03:16:40;;;;;;;8.53;4.90;;;1.10;91.00;;;;;;4998182;28;20053;-69
2022/03/09 03:19:05;;;;;;;9.00;4.60;;;1.10;91.20;;;;;;5012761;28;20037;-70
2022/03/09 03:21:32;;;;;;;10.70;4.93;;;1.00;91.20;;;;;;5042156;28;20140;-69
2022/03/09 03:23:57;;;;;;;8.55;4.60;;;1.00;91.30;;;;;;5016480;28;20384;-69
2022/03/09 03:26:24;;;;;;;9.77;4.53;;;1.00;91.40;;;;;;5017172;28;20076;-69
2022/03/09 03:28:51;;;;;;;10.10;5.03;;;1.00;91.70;;;;;;5013655;28;20037;-69
2022/03/09 03:31:16;;;;;;;10.90;5.40;;;1.00;91.60;;;;;;5044811;28;20056;-69
2022/03/09 03:33:42;;;;;;;10.77;4.63;;;0.90;91.60;;;;;;5035345;28;20350;-70
2022/03/09 03:36:07;;;;;;;10.53;4.50;;;0.90;91.60;;;;;;5026151;28;20330;-69
2022/03/09 03:38:33;;;;;;;10.20;4.47;;;0.90;91.80;;;;;;5028214;28;20037;-69
2022/03/09 03:40:59;;;;;;;9.90;5.23;;;0.90;92.00;;;;;;5029102;28;20120;-69
2022/03/09 03:43:24;;;;;;;10.30;4.80;;;0.90;92.00;;;;;;5012225;28;20048;-70
2022/03/09 03:45:50;;;;;;;13.47;4.93;;;0.90;92.00;;;;;;5012301;28;20037;-70
2022/03/09 03:48:15;;;;;;;12.43;4.83;;;0.90;91.80;;;;;;5019413;28;20170;-69
2022/03/09 03:50:41;;;;;;;9.30;4.70;;;0.90;91.90;;;;;;5030616;28;20041;-70
2022/03/09 03:53:07;;;;;;;8.47;4.80;;;0.90;91.80;;;;;;5009616;28;20049;-69
2022/03/09 03:55:33;;;;;;;10.20;5.60;;;0.80;92.00;;;;;;5007709;28;20037;-69
2022/03/09 03:57:58;;;;;;;12.27;4.63;;;0.90;92.20;;;;;;4992459;28;20053;-70
2022/03/09 04:00:24;;;;;;;11.20;5.03;;;0.80;92.20;;;;;;5024599;28;20075;-69
2022/03/09 04:02:51;;;;;;;13.50;5.97;;;0.80;92.30;;;;;;5008822;28;20042;-69
2022/03/09 04:05:16;;;;;;;10.60;5.45;;;0.80;92.30;;;;;;5005931;28;20037;-70
2022/03/09 04:07:45;;;;;;;8.23;4.87;;;0.80;92.30;;;;;;5002879;28;20044;-69
2022/03/09 04:10:10;;;;;;;10.27;5.20;;;0.80;92.50;;;;;;5009728;28;20041;-70
2022/03/09 04:12:36;;;;;;;10.40;5.10;;;0.80;92.60;;;;;;5009112;28;20041;-69
2022/03/09 04:15:02;;;;;;;10.73;5.60;;;0.80;92.70;;;;;;5012427;28;20076;-69
2022/03/09 04:17:28;;;;;;;9.68;5.25;;;0.70;92.80;;;;;;5002241;28;20370;-69
2022/03/09 04:19:53;;;;;;;8.37;4.73;;;0.70;93.20;;;;;;5008103;28;20033;-69
2022/03/09 04:22:19;;;;;;;11.73;4.80;;;0.70;93.00;;;;;;5007114;28;20048;-69
2022/03/09 04:24:44;;;;;;;10.07;5.57;;;0.60;93.00;;;;;;5007054;28;20046;-69
2022/03/09 04:27:10;;;;;;;10.57;5.53;;;0.60;93.10;;;;;;5012926;28;20124;-69
2022/03/09 04:29:36;;;;;;;9.93;5.13;;;0.60;93.20;;;;;;5024307;28;20042;-69
2022/03/09 04:32:27;;;;;;;9.77;4.93;;;0.60;93.30;;;;;;5003484;28;20037;-70
2022/03/09 04:34:56;;;;;;;10.20;5.03;;;0.60;93.60;;;;;;5001606;28;20042;-70
2022/03/09 04:37:21;;;;;;;11.83;5.30;;;0.60;93.70;;;;;;5002001;28;20046;-71
2022/03/09 04:39:48;;;;;;;8.33;4.73;;;0.50;93.60;;;;;;5003208;28;20045;-71
2022/03/09 04:42:14;;;;;;;9.65;4.97;;;0.50;93.70;;;;;;5026179;28;20429;-71
2022/03/09 04:44:39;;;;;;;12.55;5.25;;;0.50;94.00;;;;;;5007009;28;20206;-71
2022/03/09 04:47:05;;;;;;;9.37;5.00;;;0.50;94.00;;;;;;5020749;28;20091;-70
2022/03/09 04:49:30;;;;;;;8.50;4.67;;;0.50;94.30;;;;;;5007861;28;20151;-70
2022/03/09 04:51:56;;;;;;;9.07;4.40;;;0.50;94.40;;;;;;5023146;28;20497;-71
2022/03/09 04:54:22;;;;;;;10.63;5.50;;;0.50;94.50;;;;;;5006996;28;20041;-70
2022/03/09 04:56:47;;;;;;;10.57;5.00;;;0.40;94.70;;;;;;5023536;28;20045;-71
2022/03/09 04:59:14;;;;;;;10.93;5.03;;;0.40;94.90;;;;;;5008797;28;20099;-70
2022/03/09 05:01:39;;;;;;;;;;;0.40;95.00;;;;;;5023146;28;20100;-70
2022/03/09 05:04:05;;;;;;;9.40;4.80;;;0.40;96.20;;;;;;5018061;28;20468;-70
2022/03/09 05:06:31;;;;;;;9.10;4.80;;;0.40;95.10;;;;;;5022686;28;20250;-71
2022/03/09 05:08:59;;;;;;;10.23;4.70;;;0.40;95.30;;;;;;5020387;28;20346;-70
2022/03/09 05:11:24;;;;;;;11.48;5.47;;;0.40;95.30;;;;;;5024516;28;20501;-71
2022/03/09 05:13:50;;;;;;;9.37;5.60;;;0.30;95.60;;;;;;5024005;28;20084;-70
2022/03/09 05:16:15;;;;;;;10.83;5.07;;;0.30;95.80;;;;;;5002451;28;20550;-70
2022/03/09 05:18:41;;;;;;;15.37;5.37;;;0.30;95.70;;;;;;5013555;28;20437;-70
2022/03/09 05:21:08;;;;;;;10.30;5.43;;;0.30;95.90;;;;;;5014994;28;20416;-70
2022/03/09 05:23:34;;;;;;;11.13;5.53;;;0.30;96.50;;;;;;5021833;28;20433;-70
2022/03/09 05:26:00;;;;;;;12.52;5.93;;;0.30;96.30;;;;;;5019205;28;20037;-71
2022/03/09 05:28:25;;;;;;;13.57;5.70;;;0.30;96.50;;;;;;5003484;28;20037;-70
2022/03/09 05:30:51;;;;;;;12.90;6.03;;;0.30;96.70;;;;;;5018719;28;20363;-70
2022/03/09 05:33:17;;;;;;;11.37;5.33;;;0.20;96.70;;;;;;5022294;28;20056;-70
2022/03/09 05:35:42;;;;;;;8.30;5.05;;;0.20;96.80;;;;;;5000079;28;20408;-70
2022/03/09 05:38:08;;;;;;;10.27;4.70;;;0.20;96.90;;;;;;5006003;28;20041;-71
2022/03/09 05:40:34;;;;;;;10.03;5.33;;;0.20;97.00;;;;;;4973955;28;20037;-71
2022/03/09 05:42:59;;;;;;;12.43;5.43;;;0.20;97.20;;;;;;4974506;28;20104;-71
2022/03/09 05:45:25;;;;;;;17.60;5.20;;;0.30;97.20;;;;;;4979392;28;20033;-71
2022/03/09 05:47:51;;;;;;;10.47;4.73;;;0.20;97.20;;;;;;5006184;28;20536;-71
2022/03/09 05:50:18;;;;;;;10.82;5.38;;;0.20;97.50;;;;;;5019455;28;20363;-71
2022/03/09 05:52:44;;;;;;;9.77;5.85;;;0.10;97.30;;;;;;5017751;28;20100;-71
2022/03/09 05:55:09;;;;;;;10.20;4.63;;;0.20;97.30;;;;;;5019239;28;20041;-72
2022/03/09 05:57:35;;;;;;;10.00;5.33;;;0.20;97.30;;;;;;5006413;28;20409;-71
2022/03/09 06:00:02;;;;;;;14.33;5.53;;;0.20;97.40;;;;;;4998690;28;20160;-72
2022/03/09 06:02:28;;;;;;;11.05;5.50;;;0.10;97.70;;;;;;5004521;28;20463;-72
2022/03/09 06:04:53;;;;;;;9.87;4.97;;;0.10;97.60;;;;;;5020298;28;20030;-71
2022/03/09 06:07:19;;;;;;;11.30;6.00;;;0.20;97.60;;;;;;5019370;28;20029;-72
2022/03/09 06:09:45;;;;;;;10.80;5.67;;;0.20;97.60;;;;;;5006796;28;20037;-72
2022/03/09 06:12:10;;;;;;;14.27;6.33;;;0.20;97.70;;;;;;5020595;28;20048;-69
2022/03/09 06:14:36;;;;;;;10.97;5.40;;;0.10;98.20;;;;;;5023573;28;20037;-69
2022/03/09 06:17:02;;;;;;;12.27;5.50;;;0.10;98.10;;;;;;5064170;22;20072;-67
2022/03/09 06:19:27;;;;;;;12.17;5.90;;;0.10;98.20;;;;;;5067110;28;20500;-67
2022/03/09 06:21:53;;;;;;;11.53;6.73;;;0.10;98.30;;;;;;5081112;28;20036;-67
2022/03/09 06:24:19;;;;;;;12.60;5.97;;;0.10;98.20;;;;;;5069862;28;20080;-67
2022/03/09 06:26:45;;;;;;;9.90;5.30;;;0.10;98.20;;;;;;5043850;28;20044;-67
2022/03/09 06:29:11;;;;;;;12.63;5.95;;;0.10;98.30;;;;;;5038789;28;20033;-67
2022/03/09 06:31:37;;;;;;;11.40;6.00;;;0.10;98.20;;;;;;5061920;28;20512;-67
2022/03/09 06:34:02;;;;;;;13.95;5.63;;;0.10;98.60;;;;;;5044906;28;20435;-70
2022/03/09 06:36:28;;;;;;;12.13;6.17;;;0.10;98.50;;;;;;5046769;28;20040;-70
2022/03/09 06:38:53;;;;;;;12.70;6.23;;;0.20;98.70;;;;;;5040446;28;20039;-70
2022/03/09 06:41:19;;;;;;;12.03;5.40;;;0.10;98.70;;;;;;5044531;28;20033;-70
2022/03/09 06:43:45;;;;;;;11.97;5.87;;;0.20;99.30;;;;;;5041543;28;20048;-70
2022/03/09 06:46:11;;;;;;;10.47;5.77;;;0.20;99.20;;;;;;5040013;28;20039;-69
2022/03/09 06:48:36;;;;;;;11.43;6.10;;;0.20;99.20;;;;;;5035358;28;20048;-70
2022/03/09 06:51:02;;;;;;;11.03;6.47;;;0.20;99.30;;;;;;5039644;28;20070;-70
2022/03/09 06:53:28;;;;;;;12.40;5.87;;;0.30;99.20;;;;;;5041960;28;20082;-70
2022/03/09 06:55:56;;;;;;;11.35;5.82;;;0.30;99.10;;;;;;5059065;28;20036;-70
2022/03/09 06:58:23;;;;;;;12.48;5.85;;;0.40;99.30;;;;;;5040280;28;20131;-69
2022/03/09 07:00:49;;;;;;;10.15;5.72;;;0.40;99.30;;;;;;5049064;28;20458;-70
2022/03/09 07:03:15;;;;;;;11.30;6.13;;;0.40;99.30;;;;;;5057406;28;20037;-70
2022/03/09 07:05:40;;;;;;;13.53;6.27;;;0.50;99.30;;;;;;5045064;28;20044;-73
2022/03/09 07:08:06;;;;;;;12.80;5.73;;;0.50;99.30;;;;;;5054678;28;20046;-76
2022/03/09 07:10:32;;;;;;;15.13;6.37;;;0.60;99.10;;;;;;5043054;28;20063;-70
2022/03/09 07:12:57;;;;;;;11.57;6.03;;;0.60;99.30;;;;;;5052790;28;20080;-70
2022/03/09 07:15:23;;;;;;;12.80;6.00;;;0.60;99.50;;;;;;5056926;28;20060;-70
2022/03/09 07:17:49;;;;;;;9.97;6.13;;;0.70;99.20;;;;;;5044547;28;20032;-71
2022/03/09 07:20:15;;;;;;;11.40;5.73;;;0.70;99.00;;;;;;5041731;28;20052;-73
2022/03/09 07:22:43;;;;;;;9.38;4.88;;;0.70;98.90;;;;;;5039051;28;20470;-71
2022/03/09 07:25:11;;;;;;;11.02;5.72;;;0.80;99.00;;;;;;5033412;28;20120;-70
2022/03/09 07:27:36;;;;;;;11.98;6.38;;;0.90;99.00;;;;;;5044654;28;20044;-70
2022/03/09 07:30:03;;;;;;;14.37;5.80;;;0.90;98.80;;;;;;5038992;28;20075;-70
2022/03/09 07:32:29;;;;;;;11.30;6.05;;;1.00;98.70;;;;;;5021471;28;20090;-70
2022/03/09 07:34:54;;;;;;;11.30;6.10;;;1.00;98.80;;;;;;5062941;28;20033;-70
2022/03/09 07:37:20;;;;;;;12.10;6.07;;;1.20;98.60;;;;;;5058886;28;20037;-70
2022/03/09 07:39:45;;;;;;;11.17;5.73;;;1.20;98.40;;;;;;5030033;28;20055;-70
2022/03/09 07:42:11;;;;;;;10.47;5.80;;;1.20;98.10;;;;;;5055158;28;20037;-70
2022/03/09 07:44:36;;;;;;;11.80;5.47;;;1.30;98.10;;;;;;5068609;28;20075;-70
2022/03/09 07:47:02;;;;;;;13.47;5.90;;;1.40;98.10;;;;;;5032999;28;20453;-70
2022/03/09 07:49:28;;;;;;;13.00;5.90;;;1.50;98.20;;;;;;5009976;28;20105;-71
2022/03/09 07:51:54;;;;;;;13.33;6.50;;;1.50;97.90;;;;;;5018082;28;20406;-71
2022/03/09 07:54:19;;;;;;;13.17;6.80;;;1.60;97.60;;;;;;5020209;28;20123;-70
2022/03/09 07:56:45;;;;;;;12.80;5.83;;;1.70;97.30;;;;;;5004946;28;20517;-70
2022/03/09 07:59:11;;;;;;;14.40;5.57;;;1.80;97.40;;;;;;4992611;28;20158;-70
2022/03/09 08:01:37;;;;;;;12.70;6.40;;;1.90;97.30;;;;;;5004869;28;20520;-71
2022/03/09 08:04:03;;;;;;;12.20;5.70;;;1.90;97.10;;;;;;5023598;28;20040;-71
2022/03/09 08:06:29;;;;;;;12.47;5.87;;;2.00;96.60;;;;;;5023700;28;20509;-71
2022/03/09 08:08:55;;;;;;;12.33;5.97;;;2.10;96.40;;;;;;5014685;28;20044;-71
2022/03/09 08:11:22;;;;;;;12.38;6.45;;;2.20;96.10;;;;;;5038010;28;20503;-71
2022/03/09 08:13:48;;;;;;;12.18;6.00;;;2.30;95.80;;;;;;5049734;28;20404;-71
2022/03/09 08:16:13;;;;;;;15.80;6.23;;;2.40;95.60;;;;;;5055082;28;20044;-71
2022/03/09 08:18:39;;;;;;;11.10;6.27;;;2.50;95.30;;;;;;5060001;28;20029;-71
2022/03/09 08:21:05;;;;;;;12.17;6.03;;;2.60;95.70;;;;;;5046243;28;20040;-71
2022/03/09 08:23:31;;;;;;;16.30;6.53;;;2.60;95.20;;;;;;5029709;28;20111;-71
2022/03/09 08:25:56;;;;;;;9.97;5.20;;;2.70;95.30;;;;;;5039002;28;20499;-71
2022/03/09 08:28:22;;;;;;;12.37;5.80;;;2.80;94.80;;;;;;5020495;28;20055;-71
2022/03/09 08:30:48;;;;;;;10.97;5.97;;;3.00;94.40;;;;;;5040514;28;20081;-71
2022/03/09 08:33:14;;;;;;;11.73;6.03;;;3.00;94.00;;;;;;5057371;28;21283;-71
2022/03/09 08:35:40;;;;;;;;;;;3.10;93.60;;;;;;5064808;28;20071;-70
2022/03/09 08:38:05;;;;;;;14.60;6.20;;;3.30;93.70;;;;;;5064442;28;19964;-71
2022/03/09 08:40:31;;;;;;;13.37;5.93;;;3.40;93.10;;;;;;5050444;28;20086;-70
2022/03/09 08:42:57;;;;;;;12.57;5.97;;;3.50;92.10;;;;;;5039220;28;20072;-71
2022/03/09 08:45:23;;;;;;;11.23;5.73;;;3.60;91.80;;;;;;5048640;28;20071;-70
2022/03/09 08:47:48;;;;;;;15.80;7.75;;;3.70;90.30;;;;;;5046458;28;20082;-69
2022/03/09 08:50:14;;;;;;;13.03;6.50;;;3.80;88.90;;;;;;5071365;28;20048;-68
2022/03/09 08:52:40;;;;;;;16.33;7.17;;;4.00;88.40;;;;;;5041187;28;20103;-69
2022/03/09 08:55:06;;;;;;;17.43;6.77;;;4.10;86.70;;;;;;5068103;28;20048;-69
2022/03/09 08:57:32;;;;;;;52.25;10.00;;;4.10;83.70;;;;;;5024194;28;20048;-68
2022/03/09 08:59:57;;;;;;;11.70;6.13;;;4.30;80.80;;;;;;5028721;28;20476;-69
2022/03/09 09:02:24;;;;;;;12.80;7.00;;;4.40;79.00;;;;;;5036404;28;20644;-69
2022/03/09 09:04:49;;;;;;;20.80;6.88;;;4.60;78.90;;;;;;5046219;28;20107;-69
2022/03/09 09:07:15;;;;;;;13.77;7.60;;;4.60;78.30;;;;;;5055230;28;20564;-69
2022/03/09 09:09:41;;;;;;;21.20;6.60;;;4.70;78.70;;;;;;5034586;28;20482;-69
2022/03/09 09:12:07;;;;;;;13.00;6.37;;;4.90;78.60;;;;;;5054293;28;20036;-69
2022/03/09 09:14:33;;;;;;;10.18;5.93;;;5.00;75.90;;;;;;5060756;28;20058;-68
2022/03/09 09:16:58;;;;;;;11.40;5.63;;;5.10;76.60;;;;;;5034545;28;20339;-69
2022/03/09 09:19:24;;;;;;;14.03;5.80;;;5.20;77.30;;;;;;5029191;28;20043;-69
2022/03/09 09:21:50;;;;;;;8.53;4.50;;;5.30;74.20;;;;;;5005260;28;20040;-69
2022/03/09 09:24:16;;;;;;;14.93;5.53;;;5.40;70.80;;;;;;5018202;28;20445;-69
2022/03/09 09:26:42;;;;;;;12.83;5.50;;;5.60;72.30;;;;;;5046355;28;20088;-69
2022/03/09 09:29:07;;;;;;;14.37;5.83;;;5.70;72.10;;;;;;5059617;28;20037;-69
2022/03/09 09:31:34;;;;;;;9.77;5.60;;;5.80;71.10;;;;;;5069432;28;20044;-69
2022/03/09 09:34:00;;;;;;;13.85;6.22;;;5.90;70.80;;;;;;5042500;28;20049;-69
2022/03/09 09:36:25;;;;;;;11.13;6.20;;;6.00;70.50;;;;;;5046290;28;20511;-69
2022/03/09 09:38:51;;;;;;;11.80;5.40;;;6.20;69.20;;;;;;5036053;28;20624;-69
2022/03/09 09:41:19;;;;;;;13.67;6.10;;;6.30;66.90;;;;;;5025428;28;20037;-69
2022/03/09 09:43:46;;;;;;;9.07;5.35;;;6.40;68.50;;;;;;5033830;28;20041;-69
2022/03/09 09:46:13;;;;;;;12.13;5.50;;;6.50;68.20;;;;;;5037206;28;20033;-69
2022/03/09 09:48:39;;;;;;;12.50;6.70;;;6.70;67.90;;;;;;5069443;28;20040;-69
2022/03/09 09:51:06;;;;;;;11.45;6.15;;;6.80;67.30;;;;;;5043020;28;20517;-70
2022/03/09 09:53:35;;;;;;;11.40;5.38;;;6.90;67.00;;;;;;5049809;28;20036;-70
2022/03/09 09:56:02;;;;;;;9.13;5.13;;;7.10;66.50;;;;;;5032376;28;20137;-69
2022/03/09 09:58:29;;;;;;;11.10;5.82;;;7.20;64.80;;;;;;5058789;28;20037;-69
2022/03/09 10:00:56;;;;;;;10.35;5.45;;;7.30;65.10;;;;;;5024838;28;20055;-69
2022/03/09 10:03:22;;;;;;;11.00;5.90;;;7.40;64.20;;;;;;5033311;28;20044;-69
2022/03/09 10:05:48;;;;;;;;;;;7.60;64.10;;;;;;5035677;28;20040;-69
2022/03/09 10:08:16;;;;;;;9.20;4.90;;;7.70;63.50;;;;;;5055681;28;19939;-70
2022/03/09 10:10:57;;;;;;;10.38;4.95;;;7.80;63.40;;;;;;5036591;28;20108;-69
2022/03/09 10:13:26;;;;;;;11.80;5.68;;;8.00;63.00;;;;;;5055883;28;20040;-69
2022/03/09 10:16:18;;;;;;;11.10;5.95;;;8.20;62.50;;;;;;5048199;28;20048;-70
2022/03/09 10:18:54;;;;;;;9.40;5.15;;;8.40;61.30;;;;;;5037002;28;20436;-70
2022/03/09 10:21:26;;;;;;;12.07;5.30;;;8.50;60.10;;;;;;5030090;28;20470;-70
2022/03/09 10:23:58;;;;;;;10.15;5.88;;;8.60;59.40;;;;;;5069450;28;20072;-70
2022/03/09 10:26:30;;;;;;;9.73;5.22;;;8.80;59.60;;;;;;5039074;28;20049;-70
2022/03/09 10:29:01;;;;;;;10.77;5.20;;;8.90;59.70;;;;;;5056720;28;20051;-70
2022/03/09 10:31:51;;;;;;;12.65;5.95;;;9.00;58.40;;;;;;5052111;28;20119;-70
2022/03/09 10:34:22;;;;;;;9.35;5.05;;;9.10;57.30;;;;;;5039149;28;20144;-70
2022/03/09 10:37:05;;;;;;;10.98;5.72;;;9.20;57.50;;;;;;5046240;28;20040;-70
2022/03/09 10:39:34;;;;;;;9.40;4.90;;;9.30;56.30;;;;;;5067382;28;20079;-71
2022/03/09 10:42:00;;;;;;;10.48;5.72;;;9.50;57.30;;;;;;5058338;28;20052;-70
2022/03/09 10:44:44;;;;;;;13.23;6.03;;;9.60;57.40;;;;;;5044723;28;20028;-70
2022/03/09 10:47:10;;;;;;;10.15;5.60;;;9.80;56.40;;;;;;5033807;28;20131;-70
2022/03/09 10:49:36;;;;;;;10.00;5.40;;;9.90;56.90;;;;;;5040370;28;20045;-72
2022/03/09 10:52:03;;;;;;;8.52;5.00;;;10.10;56.90;;;;;;5056315;28;20882;-74
2022/03/09 10:54:29;;;;;;;;;;;10.20;56.90;;;;;;5036270;28;20049;-70
2022/03/09 10:57:06;;;;;;;9.15;5.47;;;10.20;54.80;;;;;;5053055;28;19917;-70
2022/03/09 10:59:52;;;;;;;9.68;6.00;;;10.40;54.50;;;;;;5033763;28;20178;-70
2022/03/09 11:02:20;;;;;;;11.43;6.35;;;10.50;53.30;;;;;;5056510;28;20079;-70
2022/03/09 11:05:10;;;;;;;12.65;5.85;;;10.50;53.70;;;;;;5042555;28;20055;-70
2022/03/09 11:07:37;;;;;;;9.63;5.13;;;10.60;52.40;;;;;;5037664;28;20037;-70
2022/03/09 11:10:08;;;;;;;9.30;5.82;;;10.70;53.60;;;;;;5058462;28;20040;-70
2022/03/09 11:12:35;;;;;;;11.93;5.82;;;10.80;54.20;;;;;;5050976;28;20349;-70
2022/03/09 11:15:01;;;;;;;9.45;5.40;;;10.90;52.90;;;;;;5036367;28;20425;-70
2022/03/09 11:17:27;;;;;;;11.70;6.72;;;11.00;52.50;;;;;;5036986;28;20253;-70
2022/03/09 11:19:53;;;;;;;10.10;5.88;;;11.10;51.40;;;;;;5060088;28;20028;-70
2022/03/09 11:22:19;;;;;;;10.15;5.85;;;11.10;52.30;;;;;;5028214;28;20045;-70
2022/03/09 11:24:45;;;;;;;11.70;6.20;;;11.20;51.30;;;;;;5016323;28;20142;-70
2022/03/09 11:27:11;;;;;;;11.35;6.57;;;11.30;51.60;;;;;;5032801;28;20541;-70
2022/03/09 11:29:38;;;;;;;9.70;5.90;;;11.40;51.40;;;;;;5049086;28;20071;-70
2022/03/09 11:32:10;;;;;;;9.90;5.75;;;11.50;51.80;;;;;;5043418;28;20053;-70
2022/03/09 11:34:46;;;;;;;12.40;6.18;;;11.70;51.90;;;;;;5048460;28;20036;-70
2022/03/09 11:37:14;;;;;;;13.63;5.90;;;11.80;51.90;;;;;;5047608;28;20047;-71
2022/03/09 11:39:43;;;;;;;10.23;5.70;;;12.00;51.30;;;;;;5045957;28;20090;-72
2022/03/09 11:42:21;;;;;;;13.38;6.35;;;12.10;51.40;;;;;;5055211;28;20041;-69
2022/03/09 11:44:51;;;;;;;10.13;6.07;;;12.30;50.70;;;;;;5042147;28;20485;-69
2022/03/09 11:47:17;;;;;;;11.80;6.00;;;12.30;50.40;;;;;;5046144;28;20098;-69
2022/03/09 11:49:46;;;;;;;10.82;6.13;;;12.40;50.60;;;;;;5047991;28;20485;-69
2022/03/09 11:52:15;;;;;;;9.75;6.18;;;12.60;49.20;;;;;;5044850;28;20228;-69
2022/03/09 11:55:15;;;;;;;10.85;6.57;;;12.70;48.70;;;;;;5062225;28;20040;-69
2022/03/09 11:57:50;;;;;;;9.13;5.93;;;12.80;46.60;;;;;;5063512;28;20048;-69
2022/03/09 12:00:19;;;;;;;10.95;6.70;;;13.00;47.40;;;;;;5064915;28;20032;-69
2022/03/09 12:02:48;;;;;;;12.13;6.63;;;13.10;48.20;;;;;;5048785;28;20040;-70
2022/03/09 12:05:31;;;;;;;10.43;6.25;;;13.30;47.80;;;;;;5062345;28;20848;-69
2022/03/09 12:08:03;;;;;;;11.70;6.13;;;13.40;44.40;;;;;;5043223;28;20044;-69
2022/03/09 12:10:47;;;;;;;11.38;7.05;;;13.40;45.30;;;;;;5048839;28;23424;-69
2022/03/09 12:13:14;;;;;;;11.52;6.57;;;13.60;43.60;;;;;;5044341;28;20044;-69
2022/03/09 12:15:58;;;;;;;13.93;6.43;;;13.60;44.80;;;;;;5041289;28;20036;-69
2022/03/09 12:20:53;;;;;;;10.82;6.30;;;13.70;44.40;;;;;;5058550;28;20535;-70
2022/03/09 12:23:19;;;;;;;10.95;6.90;;;13.80;44.40;;;;;;5065008;28;20036;-69
2022/03/09 12:25:50;;;;;;;11.27;6.45;;;13.90;44.80;;;;;;5063881;28;20073;-70
2022/03/09 12:28:25;;;;;;;13.70;7.22;;;14.10;44.30;;;;;;5040128;28;20120;-69
2022/03/09 12:31:03;;;;;;;11.55;6.63;;;14.20;43.80;;;;;;5047199;28;20128;-70
2022/03/09 12:33:31;;;;;;;8.57;5.57;;;14.30;43.50;;;;;;5064181;28;20063;-69
2022/03/09 12:36:09;;;;;;;11.93;6.28;;;14.40;43.90;;;;;;5065828;28;20172;-70
2022/03/09 12:38:49;;;;;;;11.00;6.68;;;14.50;42.50;;;;;;5059799;28;20195;-70
2022/03/09 12:41:39;;;;;;;12.75;6.30;;;14.50;42.50;;;;;;5059454;28;20088;-70
2022/03/09 12:44:10;;;;;;;10.95;6.70;;;14.70;40.90;;;;;;5034784;28;20048;-70
2022/03/09 12:46:39;;;;;;;12.20;6.68;;;14.70;42.70;;;;;;5067481;28;20437;-70
2022/03/09 12:49:06;;;;;;;13.38;7.82;;;14.90;42.70;;;;;;5047276;28;20055;-70
2022/03/09 12:51:33;;;;;;;10.75;6.22;;;14.90;41.90;;;;;;5055797;28;20547;-71
2022/03/09 12:53:59;;;;;;;9.85;6.00;;;15.00;42.00;;;;;;5030862;28;20504;-71